Time;durP1;ratioP1;P1;durP2;ratioP2;P2;SDS_P1;SDS_P2;PMS_P1;PMS_P2;Temp;Humidity;BMP_temperature;BMP_pressure;BME280_temperature;BME280_humidity;BME280_pressure;Samples;Min_cycle;Max_cycle;Signal;HPM_P1;HPM_P2
2024/02/22 00:03:56;;;;;;;15.20;8.70;;;;;;;4.41;93.29;98130.67;434137;1259;107053;-39
2024/02/22 00:14:02;;;;;;;19.90;9.00;;;;;;;4.40;93.36;98115.81;434196;1254;98822;-39
2024/02/22 00:24:09;;;;;;;26.60;12.50;;;;;;;4.34;93.38;98100.57;434338;1255;111240;-39
2024/02/22 00:34:17;;;;;;;25.90;12.10;;;;;;;4.25;93.32;98090.86;434252;1260;107541;-39
2024/02/22 00:44:23;;;;;;;26.30;12.00;;;;;;;4.19;93.12;98073.91;434163;1259;99240;-41
2024/02/22 00:54:29;;;;;;;22.60;10.10;;;;;;;4.11;93.10;98059.52;434256;1258;107901;-39
2024/02/22 01:04:36;;;;;;;22.90;11.80;;;;;;;3.98;93.03;98036.33;434264;1254;98021;-39
2024/02/22 01:14:43;;;;;;;35.30;17.30;;;;;;;3.84;93.18;98008.61;434186;1258;111720;-39
2024/02/22 01:24:50;;;;;;;27.30;13.60;;;;;;;3.74;93.32;97981.41;434173;1256;108664;-39
2024/02/22 01:34:57;;;;;;;28.00;13.20;;;;;;;3.75;93.24;97974.77;434103;1258;99247;-38
2024/02/22 01:45:04;;;;;;;29.80;13.70;;;;;;;3.75;93.42;97954.17;434036;1259;107684;-39
2024/02/22 01:55:11;;;;;;;29.40;15.90;;;;;;;3.76;93.36;97945.20;434009;1259;99102;-39
2024/02/22 02:05:16;;;;;;;46.00;21.60;;;;;;;3.69;93.53;97926.80;434163;1258;111990;-40
2024/02/22 02:15:23;;;;;;;28.60;16.20;;;;;;;3.67;93.63;97911.63;434272;1255;107797;-39
2024/02/22 02:45:45;;;;;;;45.00;23.10;;;;;;;4.00;93.80;97872.48;434633;1256;99072;-41
2024/02/22 02:55:52;;;;;;;36.90;16.00;;;;;;;4.04;93.70;97859.05;433903;1258;112230;-39
2024/02/22 03:05:59;;;;;;;27.00;13.10;;;;;;;4.13;93.46;97848.39;433893;1260;107328;-39
2024/02/22 03:16:08;;;;;;;20.10;10.40;;;;;;;4.22;93.48;97830.46;434654;1256;98039;-39
2024/02/22 03:26:15;;;;;;;23.60;11.80;;;;;;;4.35;93.46;97820.42;433972;1261;108581;-40
2024/02/22 03:36:22;;;;;;;28.40;13.90;;;;;;;4.42;93.37;97818.85;433955;1260;99135;-38
2024/02/22 03:46:29;;;;;;;17.00;7.30;;;;;;;4.54;93.10;97804.14;434034;1259;111293;-40
2024/02/22 03:56:37;;;;;;;14.40;7.20;;;;;;;4.72;92.87;97787.33;433765;1260;108474;-40
2024/02/22 04:06:45;;;;;;;28.00;13.90;;;;;;;4.81;92.74;97773.33;433973;1260;98844;-39
2024/02/22 04:16:52;;;;;;;20.10;11.00;;;;;;;4.78;92.39;97762.88;433614;1257;383429;-40
2024/02/22 04:37:06;;;;;;;24.80;12.40;;;;;;;4.66;91.62;97752.36;434404;1261;111953;-39
2024/02/22 04:57:20;;;;;;;19.90;10.20;;;;;;;4.63;91.86;97748.77;434046;1257;99230;-39
2024/02/22 05:07:27;;;;;;;16.60;8.60;;;;;;;4.79;91.72;97749.89;434492;1260;108591;-39
2024/02/22 05:17:34;;;;;;;15.90;7.30;;;;;;;4.97;91.81;97729.14;434056;1260;99252;-40
2024/02/22 05:27:41;;;;;;;20.70;8.90;;;;;;;5.18;91.77;97719.55;433992;1260;111243;-39
2024/02/22 05:37:48;;;;;;;19.30;8.50;;;;;;;5.30;91.58;97704.18;434083;1256;108196;-40
2024/02/22 05:47:55;;;;;;;18.40;6.50;;;;;;;5.60;91.30;97679.63;434099;1260;98056;-41
2024/02/22 06:08:11;;;;;;;13.20;7.50;;;;;;;6.01;90.33;97667.42;434070;1260;97996;-39
2024/02/22 06:18:17;;;;;;;;;;;;;;;6.05;89.79;97653.98;434095;1260;111763;-38
2024/02/22 06:28:25;;;;;;;15.40;6.60;;;;;;;6.17;89.26;97645.00;434072;1260;107773;-39
2024/02/22 06:38:32;;;;;;;15.50;7.30;;;;;;;6.24;89.14;97635.27;434027;1258;97995;-37
2024/02/22 06:48:38;;;;;;;22.60;8.90;;;;;;;6.32;88.58;97634.64;433993;1261;108135;-39
2024/02/22 07:08:53;;;;;;;16.80;7.80;;;;;;;6.75;87.10;97596.70;433934;1256;112248;-40
2024/02/22 07:19:01;;;;;;;14.20;7.90;;;;;;;6.91;86.69;97594.58;434065;1255;108870;-39
2024/02/22 07:29:09;;;;;;;10.50;6.90;;;;;;;6.99;86.30;97588.90;434066;1259;99227;-39
2024/02/22 07:39:20;;;;;;;10.10;6.20;;;;;;;7.19;85.30;97585.36;433976;1256;108234;-40
2024/02/22 07:49:27;;;;;;;16.60;9.10;;;;;;;7.39;84.78;97567.98;433835;1260;99269;-40
2024/02/22 07:59:34;;;;;;;16.10;8.20;;;;;;;7.53;84.28;97553.48;433922;1260;111798;-40
2024/02/22 08:09:41;;;;;;;13.70;8.40;;;;;;;7.72;84.10;97550.09;434013;1268;107974;-40
2024/02/22 08:19:48;;;;;;;16.60;8.30;;;;;;;7.87;83.76;97549.35;434088;1260;99227;-40
2024/02/22 08:29:55;;;;;;;16.10;7.90;;;;;;;7.90;83.42;97541.39;434014;1260;108656;-39
2024/02/22 08:40:01;;;;;;;13.80;8.10;;;;;;;7.94;83.11;97534.14;434013;1256;99241;-39
2024/02/22 08:50:09;;;;;;;13.50;6.60;;;;;;;8.17;82.74;97519.90;433991;1260;112997;-39
2024/02/22 09:00:19;;;;;;;13.60;7.90;;;;;;;8.47;82.74;97514.14;434038;1261;107564;-40
2024/02/22 09:10:26;;;;;;;12.00;7.40;;;;;;;8.61;82.09;97491.88;434114;1256;99240;-39
2024/02/22 09:20:33;;;;;;;21.10;9.40;;;;;;;8.83;81.49;97465.37;433925;1259;108644;-43
2024/02/22 09:30:39;;;;;;;17.80;8.20;;;;;;;9.15;81.40;97459.06;433956;1256;98028;-41
2024/02/22 09:40:46;;;;;;;27.10;10.80;;;;;;;9.25;80.84;97441.48;433943;1256;111744;-40
2024/02/22 09:50:56;;;;;;;21.20;9.00;;;;;;;9.46;80.56;97422.00;433973;1260;107858;-39
2024/02/22 10:01:03;;;;;;;13.70;8.20;;;;;;;9.58;80.14;97414.44;433928;1255;99276;-40
2024/02/22 10:21:17;;;;;;;17.80;8.80;;;;;;;9.45;78.62;97382.29;433980;1255;99247;-40
2024/02/22 10:31:24;;;;;;;22.90;10.00;;;;;;;9.45;76.88;97370.31;434034;1255;110916;-40
2024/02/22 10:41:34;;;;;;;17.50;8.80;;;;;;;9.49;77.68;97353.85;433891;1260;108052;-39
2024/02/22 10:51:39;;;;;;;17.30;8.40;;;;;;;9.48;77.58;97344.77;433991;1256;97952;-40
2024/02/22 11:01:48;;;;;;;22.90;9.80;;;;;;;9.50;77.50;97331.95;434028;1256;108157;-40
2024/02/22 11:12:01;;;;;;;20.30;9.90;;;;;;;9.55;76.94;97312.30;434085;1259;99240;-40
2024/02/22 11:22:15;;;;;;;24.00;10.10;;;;;;;9.66;75.66;97290.71;433802;1261;112320;-40
2024/02/22 11:32:28;;;;;;;17.80;10.20;;;;;;;9.76;74.59;97270.50;434011;1256;108588;-40
2024/02/22 11:42:36;;;;;;;22.20;11.00;;;;;;;9.63;74.33;97258.34;434037;1256;99234;-40
2024/02/22 11:52:44;;;;;;;20.90;11.30;;;;;;;9.54;74.81;97248.80;433870;1260;107340;-39
2024/02/22 12:02:53;;;;;;;19.90;10.10;;;;;;;9.53;74.91;97235.60;433906;1256;98560;-40
2024/02/22 12:13:02;;;;;;;28.10;9.70;;;;;;;9.57;75.21;97218.63;433900;1256;110868;-41
2024/02/22 12:23:11;;;;;;;24.60;9.90;;;;;;;9.62;75.86;97206.30;433834;1260;106527;-41
2024/02/22 12:33:26;;;;;;;21.30;10.60;;;;;;;9.80;76.05;97165.02;433938;1261;99323;-41
2024/02/22 12:43:33;;;;;;;19.10;10.30;;;;;;;9.92;75.86;97148.04;433997;1260;107589;-41
2024/02/22 12:53:43;;;;;;;19.20;10.20;;;;;;;10.00;75.79;97130.48;434066;1256;98610;-40
2024/02/22 13:13:55;;;;;;;17.60;9.50;;;;;;;10.33;75.99;97111.04;433989;1255;108143;-41
2024/02/22 13:34:09;;;;;;;23.90;11.20;;;;;;;10.34;75.87;97094.97;433946;1261;108548;-39
2024/02/22 13:44:19;;;;;;;15.40;9.50;;;;;;;10.22;75.34;97081.77;433991;1256;98549;-40
2024/02/22 13:54:36;;;;;;;18.70;9.20;;;;;;;10.12;75.08;97061.66;433926;1256;111978;-40
2024/02/22 14:04:43;;;;;;;24.20;12.00;;;;;;;10.11;75.56;97040.42;433895;1260;108026;-40
2024/02/22 14:14:49;;;;;;;19.70;10.40;;;;;;;10.13;75.41;97027.75;433930;1260;99260;-41
2024/02/22 14:24:55;;;;;;;23.30;11.90;;;;;;;10.09;75.33;97012.27;434080;1260;107493;-41
2024/02/22 14:35:02;;;;;;;21.80;11.60;;;;;;;9.86;75.34;96999.52;433833;1260;99343;-38
2024/02/22 14:45:07;;;;;;;21.60;11.90;;;;;;;9.67;75.22;96982.83;433871;1260;111291;-40
2024/02/22 14:55:13;;;;;;;20.50;10.70;;;;;;;9.57;74.93;96956.91;433886;1255;106667;-40
2024/02/22 15:05:21;;;;;;;21.30;11.80;;;;;;;9.49;74.37;96947.67;433969;1256;99211;-41
2024/02/22 15:15:29;;;;;;;20.90;10.30;;;;;;;9.43;74.14;96943.96;434291;1260;111763;-41
2024/02/22 15:35:43;;;;;;;24.40;13.50;;;;;;;9.32;74.65;96928.61;433994;1255;112313;-39
2024/02/22 16:06:03;;;;;;;25.30;13.70;;;;;;;8.96;73.98;96899.04;433964;1260;108636;-40
2024/02/22 16:16:09;;;;;;;22.10;12.90;;;;;;;8.81;73.95;96886.89;433640;1260;546309;-40
2024/02/22 16:26:16;;;;;;;22.50;12.10;;;;;;;8.75;74.01;96881.44;434120;1256;110383;-41
2024/02/22 16:36:24;;;;;;;21.30;13.80;;;;;;;8.62;73.99;96886.10;433894;1260;108318;-40
2024/02/22 16:46:29;;;;;;;20.20;13.00;;;;;;;8.52;73.70;96885.23;433907;1259;99231;-39
2024/02/22 17:06:43;;;;;;;15.50;9.80;;;;;;;8.39;73.77;96849.62;434938;1261;99220;-40
2024/02/22 17:16:49;;;;;;;21.40;13.20;;;;;;;8.35;74.06;96824.33;435207;1258;111562;-40
2024/02/22 17:26:57;;;;;;;40.20;21.30;;;;;;;8.27;73.80;96809.41;433989;1261;110527;-41
2024/02/22 17:37:04;;;;;;;26.70;15.70;;;;;;;8.20;74.28;96800.13;434812;1261;99247;-40
2024/02/22 17:47:12;;;;;;;40.80;21.10;;;;;;;8.19;74.21;96791.02;434496;1261;108431;-40
2024/02/22 17:57:19;;;;;;;28.90;18.30;;;;;;;8.17;74.14;96787.48;434549;1261;99236;-41
2024/02/22 18:07:25;;;;;;;30.40;18.40;;;;;;;8.08;74.43;96779.30;434526;1261;111840;-40
2024/02/22 18:17:31;;;;;;;26.20;15.80;;;;;;;8.01;74.51;96773.42;434738;1262;107286;-39
2024/02/22 18:37:46;;;;;;;27.90;14.70;;;;;;;7.95;75.14;96759.14;434668;1260;108605;-39
2024/02/22 18:47:53;;;;;;;32.30;15.70;;;;;;;7.90;75.47;96755.87;434048;1261;98026;-40
2024/02/22 18:58:01;;;;;;;19.50;12.20;;;;;;;7.91;75.74;96733.92;433977;1262;110706;-40
2024/02/22 19:08:09;;;;;;;27.10;16.10;;;;;;;7.91;76.06;96720.45;433878;1257;108804;-40
2024/02/22 19:18:15;;;;;;;25.80;15.30;;;;;;;7.82;76.53;96701.95;433877;1259;99369;-40
2024/02/22 19:28:23;;;;;;;24.50;14.80;;;;;;;7.79;76.62;96690.63;433971;1262;109445;-40
2024/02/22 19:38:31;;;;;;;19.70;12.00;;;;;;;7.81;76.99;96677.42;434094;1259;99244;-40
2024/02/22 19:48:38;;;;;;;33.40;17.00;;;;;;;7.73;77.15;96672.46;434211;1258;111052;-42
2024/02/22 19:58:45;;;;;;;28.60;16.40;;;;;;;7.57;77.51;96651.85;433959;1261;108473;-40
2024/02/22 20:18:59;;;;;;;29.60;15.40;;;;;;;7.46;77.84;96625.45;433870;1261;107476;-40
2024/02/22 20:39:13;;;;;;;23.40;12.70;;;;;;;7.33;78.13;96611.63;434080;1262;111569;-40
2024/02/22 20:49:20;;;;;;;14.60;10.00;;;;;;;7.24;78.47;96605.02;433956;1261;108586;-40
2024/02/22 20:59:27;;;;;;;17.20;10.50;;;;;;;7.22;78.74;96597.34;434196;1261;97996;-40
2024/02/22 21:09:35;;;;;;;19.50;11.20;;;;;;;7.26;78.91;96595.30;433906;1271;108607;-40
2024/02/22 21:39:59;;;;;;;10.70;6.10;;;;;;;7.36;79.78;96596.34;433808;1257;107291;-39
2024/02/22 21:50:09;;;;;;;9.80;5.80;;;;;;;7.42;80.14;96585.27;434153;1261;99135;-40
2024/02/22 22:00:14;;;;;;;6.70;4.90;;;;;;;7.46;80.60;96576.75;434010;1262;107088;-39
2024/02/22 22:10:21;;;;;;;9.70;5.00;;;;;;;7.59;80.70;96575.33;433973;1261;97997;-39
2024/02/22 22:20:28;;;;;;;11.80;6.50;;;;;;;7.64;80.96;96571.59;433854;1257;111767;-40
2024/02/22 22:50:49;;;;;;;8.80;5.00;;;;;;;7.65;81.81;96555.44;433916;1271;106680;-40
2024/02/22 23:00:56;;;;;;;11.20;6.70;;;;;;;7.75;82.40;96552.70;434055;1271;99259;-40
2024/02/22 23:11:03;;;;;;;10.60;6.20;;;;;;;7.83;82.30;96555.83;434007;1271;111861;-40
2024/02/22 23:21:10;;;;;;;9.50;5.80;;;;;;;7.93;82.44;96557.30;433986;1261;108215;-41
2024/02/22 23:31:17;;;;;;;10.20;6.20;;;;;;;7.95;82.65;96553.66;434042;1259;99289;-40
2024/02/22 23:41:24;;;;;;;10.90;6.40;;;;;;;7.95;82.76;96556.56;433890;1258;108034;-40
2024/02/22 23:51:38;;;;;;;8.70;5.50;;;;;;;8.02;82.77;96559.25;433896;1261;99252;-40
